Time,TemperatureF,DewpointF,PressureIn,WindDirection,WindDirectionDegrees,WindSpeedMPH,WindSpeedGustMPH,Humidity,HourlyPrecipIn,Conditions,Clouds,dailyrainin,SoftwareType,DateUTC
2013-01-29 00:02:00,40.1,26.1,30.11,West,275,13.0,13.0,57,0.00,CLR,,0.00,WeatherDisplay:10.37,2013-01-29 08:02:00,
2013-01-29 00:07:00,39.9,25.9,30.11,West,263,13.8,13.8,57,0.00,CLR,,0.00,WeatherDisplay:10.37,2013-01-29 08:07:00,
2013-01-29 00:12:00,39.9,25.5,30.11,WSW,249,10.4,10.4,56,0.00,CLR,,0.00,WeatherDisplay:10.37,2013-01-29 08:12:00,
2013-01-29 00:17:00,39.5,25.9,30.11,WSW,256,10.4,10.4,58,0.00,CLR,,0.00,WeatherDisplay:10.37,2013-01-29 08:17:00,
2013-01-29 00:22:00,39.2,26.5,30.11,West,259,9.2,9.2,60,0.00,CLR,,0.00,WeatherDisplay:10.37,2013-01-29 08:22:00,
2013-01-29 00:27:00,39.5,26.8,30.10,WNW,284,12.7,12.7,60,0.00,CLR,,0.00,WeatherDisplay:10.37,2013-01-29 08:27:00,
2013-01-29 00:32:00,39.3,27.0,30.10,West,265,12.7,12.7,61,0.00,CLR,,0.00,WeatherDisplay:10.37,2013-01-29 08:32:00,
2013-01-29 00:37:00,39.0,26.7,30.10,WNW,298,11.5,11.5,61,0.00,CLR,,0.00,WeatherDisplay:10.37,2013-01-29 08:37:00,
2013-01-29 00:42:00,38.8,26.9,30.11,WSW,249,6.9,6.9,62,0.00,CLR,,0.00,WeatherDisplay:10.37,2013-01-29 08:42:00,
2013-01-29 00:47:00,38.3,26.8,30.12,WSW,250,5.0,5.0,63,0.00,CLR,,0.00,WeatherDisplay:10.37,2013-01-29 08:47:00,
2013-01-29 00:52:00,38.2,26.7,30.10,WSW,250,2.3,2.3,63,0.00,CLR,,0.00,WeatherDisplay:10.37,2013-01-29 08:52:00,
2013-01-29 00:57:00,38.1,26.6,30.11,SE,132,4.0,4.0,63,0.00,CLR,,0.00,WeatherDisplay:10.37,2013-01-29 08:57:00,
2013-01-29 01:02:00,38.5,26.6,30.10,South,171,6.9,6.9,62,0.00,CLR,,0.00,WeatherDisplay:10.37,2013-01-29 09:02:00,
2013-01-29 01:07:00,39.8,27.4,30.10,NNW,334,15.0,15.0,61,0.00,CLR,,0.00,WeatherDisplay:10.37,2013-01-29 09:07:00,
2013-01-29 01:12:00,40.7,27.1,30.09,NW,306,26.5,26.5,58,0.00,CLR,,0.00,WeatherDisplay:10.37,2013-01-29 09:12:00,
2013-01-29 01:17:00,40.9,26.8,30.10,NW,326,18.4,18.4,57,0.00,CLR,,0.00,WeatherDisplay:10.37,2013-01-29 09:17:00,
2013-01-29 01:22:00,40.9,26.8,30.09,NW,309,16.1,16.1,57,0.00,CLR,,0.00,WeatherDisplay:10.37,2013-01-29 09:22:00,
2013-01-29 01:27:00,40.9,26.8,30.10,NW,317,17.3,17.3,57,0.00,CLR,,0.00,WeatherDisplay:10.37,2013-01-29 09:27:00,
2013-01-29 01:32:00,40.6,27.0,30.10,South,183,5.8,5.8,58,0.00,CLR,,0.00,WeatherDisplay:10.37,2013-01-29 09:32:00,
2013-01-29 01:37:00,40.0,26.4,30.10,South,183,3.5,3.5,58,0.00,CLR,,0.00,WeatherDisplay:10.37,2013-01-29 09:37:00,
2013-01-29 01:42:00,39.6,26.8,30.10,South,183,2.3,2.3,60,0.00,CLR,,0.00,WeatherDisplay:10.37,2013-01-29 09:42:00,
2013-01-29 01:47:00,39.3,27.0,30.11,South,183,1.1,0.0,61,0.00,CLR,,0.00,WeatherDisplay:10.37,2013-01-29 09:47:00,
2013-01-29 01:52:00,39.4,27.5,30.10,South,184,4.0,4.0,62,0.00,CLR,,0.00,WeatherDisplay:10.37,2013-01-29 09:52:00,
2013-01-29 01:57:00,39.7,27.3,30.10,North,360,4.6,4.6,61,0.00,CLR,,0.00,WeatherDisplay:10.37,2013-01-29 09:57:00,
2013-01-29 02:02:00,39.8,27.8,30.10,WNW,292,3.5,3.5,62,0.00,CLR,,0.00,WeatherDisplay:10.37,2013-01-29 10:02:00,
2013-01-29 02:07:00,39.7,27.7,30.10,West,272,2.3,2.3,62,0.00,CLR,,0.00,WeatherDisplay:10.37,2013-01-29 10:07:00,
2013-01-29 02:12:00,39.6,27.6,30.10,SE,144,6.9,6.9,62,0.00,CLR,,0.00,WeatherDisplay:10.37,2013-01-29 10:12:00,
2013-01-29 02:17:00,39.6,27.6,30.11,ENE,78,3.0,3.0,62,0.00,CLR,,0.00,WeatherDisplay:10.37,2013-01-29 10:17:00,
2013-01-29 02:22:00,39.7,28.1,30.10,ESE,111,10.4,10.4,63,0.00,CLR,,0.00,WeatherDisplay:10.37,2013-01-29 10:22:00,
2013-01-29 02:27:00,39.4,27.8,30.11,South,188,6.9,6.9,63,0.00,CLR,,0.00,WeatherDisplay:10.37,2013-01-29 10:27:00,
2013-01-29 02:32:00,39.2,27.7,30.11,WSW,252,2.3,2.3,63,0.00,CLR,,0.00,WeatherDisplay:10.37,2013-01-29 10:32:00,
2013-01-29 02:37:00,38.8,27.7,30.11,SW,214,3.5,3.5,64,0.00,CLR,,0.00,WeatherDisplay:10.37,2013-01-29 10:37:00,
2013-01-29 02:42:00,38.4,27.7,30.11,WSW,257,10.4,10.4,65,0.00,CLR,,0.00,WeatherDisplay:10.37,2013-01-29 10:42:00,
2013-01-29 02:47:00,39.0,27.8,30.11,SW,223,1.1,1.1,64,0.00,CLR,,0.00,WeatherDisplay:10.37,2013-01-29 10:47:00,
2013-01-29 02:52:00,38.7,27.6,30.11,SW,223,5.8,5.8,64,0.00,CLR,,0.00,WeatherDisplay:10.37,2013-01-29 10:52:00,
2013-01-29 02:57:00,38.2,27.5,30.12,SE,128,1.1,1.1,65,0.00,CLR,,0.00,WeatherDisplay:10.37,2013-01-29 10:57:00,
2013-01-29 03:02:00,38.0,27.6,30.13,ESE,123,0.0,0.0,66,0.00,CLR,,0.00,WeatherDisplay:10.37,2013-01-29 11:02:00,
2013-01-29 03:07:00,38.0,27.6,30.12,NW,310,6.9,6.9,66,0.00,CLR,,0.00,WeatherDisplay:10.37,2013-01-29 11:07:00,
2013-01-29 03:12:00,39.1,28.3,30.12,NNW,337,14.0,14.0,65,0.00,CLR,,0.00,WeatherDisplay:10.37,2013-01-29 11:12:00,
2013-01-29 03:17:00,40.3,28.7,30.11,North,350,17.3,17.3,63,0.00,CLR,,0.00,WeatherDisplay:10.37,2013-01-29 11:17:00,
2013-01-29 03:22:00,40.5,28.5,30.11,NNW,336,11.5,11.5,62,0.00,CLR,,0.00,WeatherDisplay:10.37,2013-01-29 11:22:00,
2013-01-29 03:27:00,40.6,28.6,30.12,NNW,333,19.6,19.6,62,0.00,CLR,,0.00,WeatherDisplay:10.37,2013-01-29 11:27:00,
2013-01-29 03:32:00,40.8,28.4,30.12,North,350,13.8,13.8,61,0.00,CLR,,0.00,WeatherDisplay:10.37,2013-01-29 11:32:00,
2013-01-29 03:37:00,41.0,28.2,30.11,NW,325,19.6,19.6,60,0.00,CLR,,0.00,WeatherDisplay:10.37,2013-01-29 11:37:00,
2013-01-29 03:42:00,41.3,28.0,30.11,NNW,334,11.5,11.5,59,0.00,CLR,,0.00,WeatherDisplay:10.37,2013-01-29 11:42:00,
2013-01-29 03:47:00,41.0,28.2,30.10,NNW,342,12.7,12.7,60,0.00,CLR,,0.00,WeatherDisplay:10.37,2013-01-29 11:47:00,
2013-01-29 03:52:00,40.8,28.0,30.10,NNW,327,8.1,8.1,60,0.00,CLR,,0.00,WeatherDisplay:10.37,2013-01-29 11:52:00,
2013-01-29 03:57:00,40.6,28.2,30.10,NNW,344,15.0,15.0,61,0.00,CLR,,0.00,WeatherDisplay:10.37,2013-01-29 11:57:00,
2013-01-29 04:02:00,40.7,28.3,30.10,NNW,338,10.4,10.4,61,0.00,CLR,,0.00,WeatherDisplay:10.37,2013-01-29 12:02:00,
2013-01-29 04:07:00,40.4,28.0,30.10,SW,233,3.5,3.5,61,0.00,CLR,,0.00,WeatherDisplay:10.37,2013-01-29 12:07:00,
2013-01-29 04:12:00,39.8,27.4,30.11,SW,233,0.0,0.0,61,0.00,CLR,,0.00,WeatherDisplay:10.37,2013-01-29 12:12:00,
2013-01-29 04:17:00,39.3,27.4,30.10,SW,233,2.3,2.3,62,0.00,CLR,,0.00,WeatherDisplay:10.37,2013-01-29 12:17:00,
2013-01-29 04:22:00,38.9,27.4,30.11,SSW,207,2.3,2.3,63,0.00,CLR,,0.00,WeatherDisplay:10.37,2013-01-29 12:22:00,
2013-01-29 04:27:00,38.8,27.7,30.11,SSW,200,3.5,3.5,64,0.00,CLR,,0.00,WeatherDisplay:10.37,2013-01-29 12:27:00,
2013-01-29 04:32:00,38.7,27.6,30.10,SSW,200,3.5,3.5,64,0.00,CLR,,0.00,WeatherDisplay:10.37,2013-01-29 12:32:00,
2013-01-29 04:37:00,38.7,27.6,30.11,SSW,200,2.3,2.3,64,0.00,CLR,,0.00,WeatherDisplay:10.37,2013-01-29 12:37:00,
2013-01-29 04:42:00,38.3,27.2,30.11,SSW,200,0.0,0.0,64,0.00,CLR,,0.00,WeatherDisplay:10.37,2013-01-29 12:42:00,
2013-01-29 04:47:00,37.8,26.7,30.11,SSW,200,2.3,2.3,64,0.00,CLR,,0.00,WeatherDisplay:10.37,2013-01-29 12:47:00,
2013-01-29 04:52:00,37.4,27.1,30.11,SSW,201,2.3,2.3,66,0.00,CLR,,0.00,WeatherDisplay:10.37,2013-01-29 12:52:00,
2013-01-29 04:57:00,37.4,27.1,30.11,SSW,201,3.5,3.5,66,0.00,CLR,,0.00,WeatherDisplay:10.37,2013-01-29 12:57:00,
2013-01-29 05:02:00,37.1,26.8,30.12,SSW,200,3.5,3.5,66,0.00,CLR,,0.00,WeatherDisplay:10.37,2013-01-29 13:02:00,
2013-01-29 05:07:00,36.9,27.0,30.12,SSW,201,2.3,2.3,67,0.00,CLR,,0.00,WeatherDisplay:10.37,2013-01-29 13:07:00,
2013-01-29 05:12:00,37.0,27.4,30.12,SSW,202,3.5,3.5,68,0.00,CLR,,0.00,WeatherDisplay:10.37,2013-01-29 13:12:00,
2013-01-29 05:17:00,37.3,27.3,30.12,SSW,202,3.0,3.0,67,0.00,CLR,,0.00,WeatherDisplay:10.37,2013-01-29 13:17:00,
2013-01-29 05:22:00,37.5,27.9,30.11,SSW,203,5.0,5.0,68,0.00,CLR,,0.00,WeatherDisplay:10.37,2013-01-29 13:22:00,
2013-01-29 05:28:00,38.7,28.7,30.11,SSW,203,3.5,3.5,67,0.00,CLR,,0.00,WeatherDisplay:10.37,2013-01-29 13:28:00,
2013-01-29 05:33:00,39.3,28.5,30.11,SSW,203,3.5,3.5,65,0.00,CLR,,0.00,WeatherDisplay:10.37,2013-01-29 13:33:00,
2013-01-29 05:38:00,39.0,27.8,30.11,West,259,6.0,6.0,64,0.00,CLR,,0.00,WeatherDisplay:10.37,2013-01-29 13:38:00,
2013-01-29 05:43:00,39.2,28.0,30.11,WSW,253,3.5,3.5,64,0.00,CLR,,0.00,WeatherDisplay:10.37,2013-01-29 13:43:00,
2013-01-29 05:48:00,38.6,27.8,30.11,WSW,253,3.5,3.5,65,0.00,CLR,,0.00,WeatherDisplay:10.37,2013-01-29 13:48:00,
2013-01-29 05:53:00,38.2,27.5,30.11,SW,223,3.5,3.5,65,0.00,CLR,,0.00,WeatherDisplay:10.37,2013-01-29 13:53:00,
2013-01-29 05:58:00,38.1,27.7,30.12,SW,232,1.1,1.1,66,0.00,CLR,,0.00,WeatherDisplay:10.37,2013-01-29 13:58:00,
2013-01-29 06:03:00,38.2,27.8,30.12,SW,232,2.3,2.3,66,0.00,CLR,,0.00,WeatherDisplay:10.37,2013-01-29 14:03:00,
2013-01-29 06:08:00,38.2,27.8,30.12,SW,232,0.0,0.0,66,0.00,CLR,,0.00,WeatherDisplay:10.37,2013-01-29 14:08:00,
2013-01-29 06:13:00,38.0,27.6,30.12,SW,232,4.0,4.0,66,0.00,CLR,,0.00,WeatherDisplay:10.37,2013-01-29 14:13:00,
2013-01-29 06:18:00,37.8,27.5,30.12,WSW,239,7.0,7.0,66,0.00,CLR,,0.00,WeatherDisplay:10.37,2013-01-29 14:18:00,
2013-01-29 06:23:00,37.9,27.9,30.12,WSW,250,3.5,3.5,67,0.00,CLR,,0.00,WeatherDisplay:10.37,2013-01-29 14:23:00,
2013-01-29 06:28:00,38.1,28.1,30.13,WSW,250,2.3,2.3,67,0.00,CLR,,0.00,WeatherDisplay:10.37,2013-01-29 14:28:00,
2013-01-29 06:33:00,38.7,28.3,30.12,WSW,250,4.6,4.6,66,0.00,CLR,,0.00,WeatherDisplay:10.37,2013-01-29 14:33:00,
2013-01-29 06:38:00,38.9,28.1,30.12,WSW,256,10.4,10.4,65,0.00,CLR,,0.00,WeatherDisplay:10.37,2013-01-29 14:38:00,
2013-01-29 06:43:00,39.0,27.8,30.12,WSW,246,4.6,4.6,64,0.00,CLR,,0.00,WeatherDisplay:10.37,2013-01-29 14:43:00,
2013-01-29 06:48:00,38.3,27.6,30.12,West,260,3.5,3.5,65,0.00,CLR,,0.00,WeatherDisplay:10.37,2013-01-29 14:48:00,
2013-01-29 06:53:00,37.9,27.5,30.12,North,11,5.8,5.8,66,0.00,CLR,,0.00,WeatherDisplay:10.37,2013-01-29 14:53:00,
2013-01-29 06:58:00,38.3,28.3,30.12,NW,317,3.5,3.5,67,0.00,CLR,,0.00,WeatherDisplay:10.37,2013-01-29 14:58:00,
2013-01-29 07:03:00,38.8,28.4,30.11,West,267,10.4,10.4,66,0.00,CLR,,0.00,WeatherDisplay:10.37,2013-01-29 15:03:00,
2013-01-29 07:08:00,39.2,28.8,30.12,West,277,5.8,5.8,66,0.00,CLR,,0.00,WeatherDisplay:10.37,2013-01-29 15:08:00,
2013-01-29 07:13:00,39.4,28.6,30.12,WSW,257,4.6,4.6,65,0.00,CLR,,0.00,WeatherDisplay:10.37,2013-01-29 15:13:00,
2013-01-29 07:18:00,39.4,28.6,30.12,WSW,257,5.8,5.8,65,0.00,CLR,,0.00,WeatherDisplay:10.37,2013-01-29 15:18:00,
2013-01-29 07:23:00,40.1,28.9,30.12,WNW,285,11.5,11.5,64,0.00,CLR,,0.00,WeatherDisplay:10.37,2013-01-29 15:23:00,
2013-01-29 07:28:00,40.6,29.0,30.11,WNW,293,10.4,10.4,63,0.00,CLR,,0.00,WeatherDisplay:10.37,2013-01-29 15:28:00,
2013-01-29 07:33:00,41.0,29.0,30.12,West,279,11.5,11.5,62,0.00,CLR,,0.00,WeatherDisplay:10.37,2013-01-29 15:33:00,
2013-01-29 07:38:00,41.0,29.0,30.12,NW,304,13.8,13.8,62,0.00,CLR,,0.00,WeatherDisplay:10.37,2013-01-29 15:38:00,
2013-01-29 07:43:00,41.5,29.0,30.12,West,281,10.4,10.4,61,0.00,CLR,,0.00,WeatherDisplay:10.37,2013-01-29 15:43:00,
2013-01-29 07:48:00,42.1,29.2,30.12,WSW,253,9.2,9.2,60,0.00,CLR,,0.00,WeatherDisplay:10.37,2013-01-29 15:48:00,
2013-01-29 07:53:00,42.3,29.4,30.12,SW,226,5.8,5.8,60,0.00,CLR,,0.00,WeatherDisplay:10.37,2013-01-29 15:53:00,
2013-01-29 07:58:00,42.4,29.5,30.12,South,183,6.9,6.9,60,0.00,CLR,,0.00,WeatherDisplay:10.37,2013-01-29 15:58:00,
2013-01-29 08:03:00,42.4,29.9,30.12,South,173,0.0,0.0,61,0.00,CLR,,0.00,WeatherDisplay:10.37,2013-01-29 16:03:00,
2013-01-29 08:08:00,42.6,30.1,30.11,South,173,2.3,2.3,61,0.00,CLR,,0.00,WeatherDisplay:10.37,2013-01-29 16:08:00,
2013-01-29 08:13:00,43.0,29.6,30.12,South,174,5.8,5.8,59,0.00,CLR,,0.00,WeatherDisplay:10.37,2013-01-29 16:13:00,
2013-01-29 08:18:00,43.4,29.6,30.12,South,176,10.4,10.4,58,0.00,CLR,,0.00,WeatherDisplay:10.37,2013-01-29 16:18:00,
2013-01-29 08:23:00,43.8,29.5,30.12,SW,225,6.9,6.9,57,0.00,CLR,,0.00,WeatherDisplay:10.37,2013-01-29 16:23:00,
2013-01-29 08:28:00,44.0,29.7,30.12,WSW,250,11.5,11.5,57,0.00,CLR,,0.00,WeatherDisplay:10.37,2013-01-29 16:28:00,
2013-01-29 08:33:00,44.1,29.8,30.12,WSW,244,11.5,11.5,57,0.00,CLR,,0.00,WeatherDisplay:10.37,2013-01-29 16:33:00,
2013-01-29 08:38:00,44.3,30.0,30.12,WSW,241,11.5,11.5,57,0.00,CLR,,0.00,WeatherDisplay:10.37,2013-01-29 16:38:00,
2013-01-29 08:43:00,44.5,30.2,30.11,West,276,15.0,15.0,57,0.00,CLR,,0.00,WeatherDisplay:10.37,2013-01-29 16:43:00,
2013-01-29 08:48:00,44.7,30.4,30.11,West,277,15.0,15.0,57,0.00,CLR,,0.00,WeatherDisplay:10.37,2013-01-29 16:48:00,
2013-01-29 08:53:00,45.0,30.2,30.11,West,259,11.5,11.5,56,0.00,CLR,,0.00,WeatherDisplay:10.37,2013-01-29 16:53:00,
2013-01-29 08:58:00,45.4,30.6,30.11,West,264,12.0,12.0,56,0.00,CLR,,0.00,WeatherDisplay:10.37,2013-01-29 16:58:00,
2013-01-29 09:03:00,46.0,30.7,30.11,WSW,253,18.4,18.4,55,0.00,CLR,,0.00,WeatherDisplay:10.37,2013-01-29 17:03:00,
2013-01-29 09:08:00,46.3,30.5,30.12,WSW,253,16.1,16.1,54,0.00,CLR,,0.00,WeatherDisplay:10.37,2013-01-29 17:08:00,
2013-01-29 09:13:00,46.6,30.4,30.11,West,275,18.4,18.4,53,0.00,CLR,,0.00,WeatherDisplay:10.37,2013-01-29 17:13:00,
2013-01-29 09:18:00,46.7,30.0,30.11,West,259,15.0,15.0,52,0.00,CLR,,0.00,WeatherDisplay:10.37,2013-01-29 17:18:00,
2013-01-29 09:23:00,47.3,30.1,30.11,WSW,237,15.0,15.0,51,0.00,CLR,,0.00,WeatherDisplay:10.37,2013-01-29 17:23:00,
2013-01-29 09:28:00,47.4,30.2,30.11,West,268,15.0,15.0,51,0.00,CLR,,0.00,WeatherDisplay:10.37,2013-01-29 17:28:00,
2013-01-29 09:33:00,47.9,30.1,30.11,West,264,16.1,16.1,50,0.00,CLR,,0.00,WeatherDisplay:10.37,2013-01-29 17:33:00,
2013-01-29 09:38:00,48.4,30.1,30.11,West,267,18.4,18.4,49,0.00,CLR,,0.00,WeatherDisplay:10.37,2013-01-29 17:38:00,
2013-01-29 09:43:00,48.8,30.0,30.11,West,267,16.1,16.1,48,0.00,CLR,,0.00,WeatherDisplay:10.37,2013-01-29 17:43:00,
2013-01-29 09:48:00,48.9,30.1,30.11,West,259,15.0,15.0,48,0.00,CLR,,0.00,WeatherDisplay:10.37,2013-01-29 17:48:00,
2013-01-29 09:53:00,49.4,30.5,30.11,WSW,238,9.0,9.0,48,0.00,CLR,,0.00,WeatherDisplay:10.37,2013-01-29 17:53:00,
2013-01-29 09:58:00,49.8,30.4,30.11,West,276,12.7,12.7,47,0.00,CLR,,0.00,WeatherDisplay:10.37,2013-01-29 17:58:00,
2013-01-29 10:03:00,50.2,30.7,30.11,WSW,241,16.1,16.1,47,0.00,CLR,,0.00,WeatherDisplay:10.37,2013-01-29 18:03:00,
2013-01-29 10:08:00,50.5,30.5,30.11,WSW,248,15.0,15.0,46,0.00,CLR,,0.00,WeatherDisplay:10.37,2013-01-29 18:08:00,
2013-01-29 10:13:00,50.8,30.2,30.10,WSW,248,15.0,15.0,45,0.00,CLR,,0.00,WeatherDisplay:10.37,2013-01-29 18:13:00,
2013-01-29 10:18:00,50.8,30.2,30.10,SW,235,20.7,20.7,45,0.00,CLR,,0.00,WeatherDisplay:10.37,2013-01-29 18:18:00,
2013-01-29 10:23:00,50.8,29.6,30.10,West,279,19.6,19.6,44,0.00,CLR,,0.00,WeatherDisplay:10.37,2013-01-29 18:23:00,
2013-01-29 10:28:00,51.0,29.8,30.10,West,267,19.6,19.6,44,0.00,CLR,,0.00,WeatherDisplay:10.37,2013-01-29 18:28:00,
2013-01-29 10:33:00,51.2,30.0,30.09,West,273,15.0,15.0,44,0.00,CLR,,0.00,WeatherDisplay:10.37,2013-01-29 18:33:00,
2013-01-29 10:38:00,51.6,29.8,30.09,WNW,294,19.6,19.6,43,0.00,CLR,,0.00,WeatherDisplay:10.37,2013-01-29 18:38:00,
2013-01-29 10:43:00,52.0,30.2,30.09,West,268,17.3,17.3,43,0.00,CLR,,0.00,WeatherDisplay:10.37,2013-01-29 18:43:00,
2013-01-29 10:48:00,52.1,30.3,30.09,West,265,19.6,19.6,43,0.00,CLR,,0.00,WeatherDisplay:10.37,2013-01-29 18:48:00,
2013-01-29 10:53:00,52.3,30.4,30.09,West,261,18.4,18.4,43,0.00,CLR,,0.00,WeatherDisplay:10.37,2013-01-29 18:53:00,
2013-01-29 10:58:00,52.2,29.8,30.09,WSW,246,13.8,13.8,42,0.00,CLR,,0.00,WeatherDisplay:10.37,2013-01-29 18:58:00,
2013-01-29 11:03:00,52.9,29.8,30.09,WSW,238,15.0,15.0,41,0.00,CLR,,0.00,WeatherDisplay:10.37,2013-01-29 19:03:00,
2013-01-29 11:08:00,53.3,30.2,30.08,West,273,11.5,11.5,41,0.00,CLR,,0.00,WeatherDisplay:10.37,2013-01-29 19:08:00,
2013-01-29 11:13:00,53.9,30.7,30.08,WSW,252,13.0,13.0,41,0.00,CLR,,0.00,WeatherDisplay:10.37,2013-01-29 19:13:00,
2013-01-29 11:18:00,54.1,30.3,30.08,West,273,11.0,11.0,40,0.00,CLR,,0.00,WeatherDisplay:10.37,2013-01-29 19:18:00,
2013-01-29 11:23:00,54.1,30.3,30.07,WSW,248,16.1,16.1,40,0.00,CLR,,0.00,WeatherDisplay:10.37,2013-01-29 19:23:00,
2013-01-29 11:28:00,54.1,30.3,30.07,WSW,247,16.1,16.1,40,0.00,CLR,,0.00,WeatherDisplay:10.37,2013-01-29 19:28:00,
2013-01-29 11:33:00,54.4,29.9,30.07,WNW,282,9.2,9.2,39,0.00,CLR,,0.00,WeatherDisplay:10.37,2013-01-29 19:33:00,
2013-01-29 11:38:00,54.6,30.1,30.07,WSW,246,11.5,11.5,39,0.00,CLR,,0.00,WeatherDisplay:10.37,2013-01-29 19:38:00,
2013-01-29 11:43:00,55.0,29.8,30.07,WNW,294,16.1,16.1,38,0.00,CLR,,0.00,WeatherDisplay:10.37,2013-01-29 19:43:00,
2013-01-29 11:48:00,55.0,29.2,30.07,NNW,336,20.7,20.7,37,0.00,CLR,,0.00,WeatherDisplay:10.37,2013-01-29 19:48:00,
2013-01-29 11:53:00,54.7,28.2,30.07,NW,323,24.2,24.2,36,0.00,CLR,,0.00,WeatherDisplay:10.37,2013-01-29 19:53:00,
2013-01-29 11:58:00,54.7,28.2,30.06,North,355,19.6,19.6,36,0.00,CLR,,0.00,WeatherDisplay:10.37,2013-01-29 19:58:00,
2013-01-29 12:03:00,54.9,28.4,30.06,North,360,23.0,23.0,36,0.00,CLR,,0.00,WeatherDisplay:10.37,2013-01-29 20:03:00,
2013-01-29 12:09:00,54.9,29.1,30.05,NW,326,21.9,21.9,37,0.00,CLR,,0.00,WeatherDisplay:10.37,2013-01-29 20:09:00,
2013-01-29 12:14:00,55.5,29.0,30.04,NNW,344,32.2,32.2,36,0.00,CLR,,0.00,WeatherDisplay:10.37,2013-01-29 20:14:00,
2013-01-29 12:19:00,55.7,29.1,30.04,NNW,348,26.5,26.5,36,0.00,CLR,,0.00,WeatherDisplay:10.37,2013-01-29 20:19:00,
2013-01-29 12:24:00,55.9,29.3,30.04,NNW,346,23.0,23.0,36,0.00,CLR,,0.00,WeatherDisplay:10.37,2013-01-29 20:24:00,
2013-01-29 12:29:00,56.0,28.7,30.04,NNE,19,20.7,20.7,35,0.00,CLR,,0.00,WeatherDisplay:10.37,2013-01-29 20:29:00,
2013-01-29 12:34:00,56.5,29.1,30.03,North,351,18.4,18.4,35,0.00,CLR,,0.00,WeatherDisplay:10.37,2013-01-29 20:34:00,
2013-01-29 12:39:00,56.5,29.8,30.01,WNW,291,25.3,25.3,36,0.00,CLR,,0.00,WeatherDisplay:10.37,2013-01-29 20:39:00,
2013-01-29 12:44:00,57.1,30.4,30.02,WSW,239,17.3,17.3,36,0.00,CLR,,0.00,WeatherDisplay:10.37,2013-01-29 20:44:00,
2013-01-29 12:49:00,57.1,30.4,30.02,SSW,194,6.9,6.9,36,0.00,CLR,,0.00,WeatherDisplay:10.37,2013-01-29 20:49:00,
2013-01-29 12:54:00,57.6,30.8,30.01,South,183,14.0,14.0,36,0.00,CLR,,0.00,WeatherDisplay:10.37,2013-01-29 20:54:00,
2013-01-29 12:59:00,57.2,30.5,30.01,South,184,15.0,15.0,36,0.00,CLR,,0.00,WeatherDisplay:10.37,2013-01-29 20:59:00,
2013-01-29 13:04:00,57.6,30.8,30.00,South,182,11.5,11.5,36,0.00,CLR,,0.00,WeatherDisplay:10.37,2013-01-29 21:04:00,
2013-01-29 13:09:00,58.0,31.2,30.00,SSE,150,7.0,7.0,36,0.00,CLR,,0.00,WeatherDisplay:10.37,2013-01-29 21:09:00,
2013-01-29 13:14:00,58.1,30.6,30.01,SW,223,11.5,11.5,35,0.00,CLR,,0.00,WeatherDisplay:10.37,2013-01-29 21:14:00,
2013-01-29 13:19:00,58.0,30.5,30.00,South,182,1.1,1.1,35,0.00,CLR,,0.00,WeatherDisplay:10.37,2013-01-29 21:19:00,
2013-01-29 13:24:00,58.5,30.9,30.00,SSE,150,3.5,3.5,35,0.00,CLR,,0.00,WeatherDisplay:10.37,2013-01-29 21:24:00,
2013-01-29 13:29:00,59.0,30.6,30.00,East,89,2.3,2.3,34,0.00,CLR,,0.00,WeatherDisplay:10.37,2013-01-29 21:29:00,
2013-01-29 13:34:00,59.0,31.4,29.99,SSE,152,5.0,5.0,35,0.00,CLR,,0.00,WeatherDisplay:10.37,2013-01-29 21:34:00,
2013-01-29 13:39:00,59.0,30.6,29.99,West,273,11.5,11.5,34,0.00,CLR,,0.00,WeatherDisplay:10.37,2013-01-29 21:39:00,
2013-01-29 13:44:00,59.0,30.6,29.99,NNW,328,13.8,13.8,34,0.00,CLR,,0.00,WeatherDisplay:10.37,2013-01-29 21:44:00,
2013-01-29 13:49:00,59.5,31.1,29.97,NW,311,11.5,11.5,34,0.00,CLR,,0.00,WeatherDisplay:10.37,2013-01-29 21:49:00,
2013-01-29 13:54:00,59.8,31.3,29.97,SSW,202,11.5,11.5,34,0.00,CLR,,0.00,WeatherDisplay:10.37,2013-01-29 21:54:00,
2013-01-29 13:59:00,59.6,31.2,29.98,WSW,238,9.2,9.2,34,0.00,CLR,,0.00,WeatherDisplay:10.37,2013-01-29 21:59:00,
2013-01-29 14:04:00,59.0,31.4,29.98,NNW,334,12.7,12.7,35,0.00,CLR,,0.00,WeatherDisplay:10.37,2013-01-29 22:04:00,
2013-01-29 14:09:00,59.9,32.2,29.97,West,280,15.0,15.0,35,0.00,CLR,,0.00,WeatherDisplay:10.37,2013-01-29 22:09:00,
2013-01-29 14:14:00,60.1,32.3,29.98,WSW,252,18.4,18.4,35,0.00,CLR,,0.00,WeatherDisplay:10.37,2013-01-29 22:14:00,
2013-01-29 14:19:00,59.9,31.4,29.98,SSE,148,11.5,11.5,34,0.00,CLR,,0.00,WeatherDisplay:10.37,2013-01-29 22:19:00,
2013-01-29 14:24:00,59.7,31.3,29.98,ENE,61,0.0,0.0,34,0.00,CLR,,0.00,WeatherDisplay:10.37,2013-01-29 22:24:00,
2013-01-29 14:29:00,59.8,31.3,29.98,SE,136,5.8,5.8,34,0.00,CLR,,0.00,WeatherDisplay:10.37,2013-01-29 22:29:00,
2013-01-29 14:34:00,59.6,31.9,29.98,South,184,9.2,9.2,35,0.00,CLR,,0.00,WeatherDisplay:10.37,2013-01-29 22:34:00,
2013-01-29 14:39:00,59.0,32.1,29.98,SW,221,15.0,15.0,36,0.00,CLR,,0.00,WeatherDisplay:10.37,2013-01-29 22:39:00,
2013-01-29 14:44:00,59.0,31.4,29.99,South,178,11.5,11.5,35,0.00,CLR,,0.00,WeatherDisplay:10.37,2013-01-29 22:44:00,
2013-01-29 14:49:00,59.0,32.1,29.99,SSE,156,7.0,7.0,36,0.00,CLR,,0.00,WeatherDisplay:10.37,2013-01-29 22:49:00,
2013-01-29 14:54:00,59.5,31.8,29.99,SSE,154,11.5,11.5,35,0.00,CLR,,0.00,WeatherDisplay:10.37,2013-01-29 22:54:00,
2013-01-29 14:59:00,59.0,31.4,29.99,SW,217,10.4,10.4,35,0.00,CLR,,0.00,WeatherDisplay:10.37,2013-01-29 22:59:00,
2013-01-29 15:04:00,58.8,31.9,29.98,ESE,118,11.5,11.5,36,0.00,CLR,,0.00,WeatherDisplay:10.37,2013-01-29 23:04:00,
2013-01-29 15:09:00,58.0,31.8,29.98,East,91,9.2,9.2,37,0.00,CLR,,0.00,WeatherDisplay:10.37,2013-01-29 23:09:00,
2013-01-29 15:14:00,58.2,32.0,29.99,ENE,66,2.3,2.3,37,0.00,CLR,,0.00,WeatherDisplay:10.37,2013-01-29 23:14:00,
2013-01-29 15:19:00,58.4,32.2,29.99,North,351,13.8,13.8,37,0.00,CLR,,0.00,WeatherDisplay:10.37,2013-01-29 23:19:00,
2013-01-29 15:24:00,57.7,32.2,29.99,North,360,13.8,13.8,38,0.00,CLR,,0.00,WeatherDisplay:10.37,2013-01-29 23:24:00,
2013-01-29 15:29:00,57.3,31.9,30.00,WNW,295,11.5,11.5,38,0.00,CLR,,0.00,WeatherDisplay:10.37,2013-01-29 23:29:00,
2013-01-29 15:34:00,57.3,31.9,30.00,NNW,333,11.5,11.5,38,0.00,CLR,,0.00,WeatherDisplay:10.37,2013-01-29 23:34:00,
2013-01-29 15:39:00,57.6,32.2,30.00,SSW,196,8.1,8.1,38,0.00,CLR,,0.00,WeatherDisplay:10.37,2013-01-29 23:39:00,
2013-01-29 15:44:00,57.6,31.5,30.00,WSW,237,11.5,11.5,37,0.00,CLR,,0.00,WeatherDisplay:10.37,2013-01-29 23:44:00,
2013-01-29 15:49:00,57.5,32.1,30.00,WSW,252,11.5,11.5,38,0.00,CLR,,0.00,WeatherDisplay:10.37,2013-01-29 23:49:00,
2013-01-29 15:54:00,57.2,31.8,30.01,SW,236,11.5,11.5,38,0.00,CLR,,0.00,WeatherDisplay:10.37,2013-01-29 23:54:00,
2013-01-29 15:59:00,56.7,32.0,30.01,WSW,241,11.5,11.5,39,0.00,CLR,,0.00,WeatherDisplay:10.37,2013-01-29 23:59:00,
2013-01-29 16:04:00,56.4,31.7,30.03,SSW,213,10.4,10.4,39,0.00,CLR,,0.00,WeatherDisplay:10.37,2013-01-30 00:04:00,
2013-01-29 16:09:00,55.8,31.8,30.03,SW,222,10.4,10.4,40,0.00,CLR,,0.00,WeatherDisplay:10.37,2013-01-30 00:09:00,
2013-01-29 16:14:00,55.2,31.3,30.03,WSW,238,13.8,13.8,40,0.00,CLR,,0.00,WeatherDisplay:10.37,2013-01-30 00:14:00,
2013-01-29 16:19:00,54.5,31.9,30.03,NW,309,5.8,5.8,42,0.00,CLR,,0.00,WeatherDisplay:10.37,2013-01-30 00:19:00,
2013-01-29 16:24:00,54.4,31.8,30.05,West,281,5.8,5.8,42,0.00,CLR,,0.00,WeatherDisplay:10.37,2013-01-30 00:24:00,
2013-01-29 16:29:00,54.5,31.9,30.04,NW,323,3.5,3.5,42,0.00,CLR,,0.00,WeatherDisplay:10.37,2013-01-30 00:29:00,
2013-01-29 16:34:00,54.6,31.9,30.04,West,271,10.4,10.4,42,0.00,CLR,,0.00,WeatherDisplay:10.37,2013-01-30 00:34:00,
2013-01-29 16:39:00,53.9,31.9,30.05,West,272,5.8,5.8,43,0.00,CLR,,0.00,WeatherDisplay:10.37,2013-01-30 00:39:00,
2013-01-29 16:44:00,53.4,32.0,30.05,WNW,292,11.5,11.5,44,0.00,CLR,,0.00,WeatherDisplay:10.37,2013-01-30 00:44:00,
2013-01-29 16:49:00,52.9,32.1,30.05,West,265,11.5,11.5,45,0.00,CLR,,0.00,WeatherDisplay:10.37,2013-01-30 00:49:00,
2013-01-29 16:54:00,52.3,32.1,30.06,West,279,6.9,6.9,46,0.00,CLR,,0.00,WeatherDisplay:10.37,2013-01-30 00:54:00,
2013-01-29 16:59:00,51.8,32.2,30.06,WSW,252,11.5,11.5,47,0.00,CLR,,0.00,WeatherDisplay:10.37,2013-01-30 00:59:00,
2013-01-29 17:04:00,51.4,31.8,30.06,NNW,329,11.5,11.5,47,0.00,CLR,,0.00,WeatherDisplay:10.37,2013-01-30 01:04:00,
2013-01-29 17:09:00,51.1,31.6,30.05,NW,321,15.0,15.0,47,0.00,CLR,,0.00,WeatherDisplay:10.37,2013-01-30 01:09:00,
2013-01-29 17:14:00,50.8,31.8,30.05,NNW,328,17.3,17.3,48,0.00,CLR,,0.00,WeatherDisplay:10.37,2013-01-30 01:14:00,
2013-01-29 17:19:00,50.5,31.5,30.05,NNW,346,21.9,21.9,48,0.00,CLR,,0.00,WeatherDisplay:10.37,2013-01-30 01:19:00,
2013-01-29 17:24:00,50.3,31.3,30.05,NNW,344,26.5,26.5,48,0.00,CLR,,0.00,WeatherDisplay:10.37,2013-01-30 01:24:00,
2013-01-29 17:29:00,49.8,31.4,30.06,WNW,300,17.3,17.3,49,0.00,CLR,,0.00,WeatherDisplay:10.37,2013-01-30 01:29:00,
2013-01-29 17:34:00,49.2,31.8,30.07,West,268,13.8,13.8,51,0.00,CLR,,0.00,WeatherDisplay:10.37,2013-01-30 01:34:00,
2013-01-29 17:39:00,48.6,31.8,30.07,West,263,18.4,18.4,52,0.00,CLR,,0.00,WeatherDisplay:10.37,2013-01-30 01:39:00,
2013-01-29 17:44:00,47.9,31.6,30.07,WNW,291,19.6,19.6,53,0.00,CLR,,0.00,WeatherDisplay:10.37,2013-01-30 01:44:00,
2013-01-29 17:49:00,47.6,31.8,30.07,WNW,282,13.8,13.8,54,0.00,CLR,,0.00,WeatherDisplay:10.37,2013-01-30 01:49:00,
2013-01-29 17:54:00,47.3,31.9,30.08,NW,313,13.8,13.8,55,0.00,CLR,,0.00,WeatherDisplay:10.37,2013-01-30 01:54:00,
2013-01-29 17:59:00,47.2,31.8,30.07,WNW,291,17.3,17.3,55,0.00,CLR,,0.00,WeatherDisplay:10.37,2013-01-30 01:59:00,
2013-01-29 18:04:00,47.2,31.8,30.06,West,263,11.5,11.5,55,0.00,CLR,,0.00,WeatherDisplay:10.37,2013-01-30 02:04:00,
2013-01-29 18:09:00,47.2,32.3,30.07,WSW,257,8.1,8.1,56,0.00,CLR,,0.00,WeatherDisplay:10.37,2013-01-30 02:09:00,
2013-01-29 18:14:00,47.2,32.3,30.07,WSW,241,4.6,4.6,56,0.00,CLR,,0.00,WeatherDisplay:10.37,2013-01-30 02:14:00,
2013-01-29 18:19:00,46.9,32.0,30.07,WSW,242,5.0,5.0,56,0.00,CLR,,0.00,WeatherDisplay:10.37,2013-01-30 02:19:00,
2013-01-29 18:24:00,46.6,31.7,30.08,WSW,241,5.8,5.8,56,0.00,CLR,,0.00,WeatherDisplay:10.37,2013-01-30 02:24:00,
2013-01-29 18:29:00,46.2,31.4,30.09,WSW,241,4.6,4.6,56,0.00,CLR,,0.00,WeatherDisplay:10.37,2013-01-30 02:29:00,
2013-01-29 18:34:00,45.8,31.0,30.09,WSW,241,4.6,4.6,56,0.00,CLR,,0.00,WeatherDisplay:10.37,2013-01-30 02:34:00,
2013-01-29 18:39:00,45.6,30.8,30.09,WSW,241,3.5,3.5,56,0.00,CLR,,0.00,WeatherDisplay:10.37,2013-01-30 02:39:00,
2013-01-29 18:44:00,45.4,30.6,30.09,WSW,241,3.5,3.5,56,0.00,CLR,,0.00,WeatherDisplay:10.37,2013-01-30 02:44:00,
2013-01-29 18:49:00,45.1,30.3,30.09,WSW,241,1.1,1.1,56,0.00,CLR,,0.00,WeatherDisplay:10.37,2013-01-30 02:49:00,
2013-01-29 18:54:00,45.0,30.2,30.09,WSW,241,0.0,0.0,56,0.00,CLR,,0.00,WeatherDisplay:10.37,2013-01-30 02:54:00,
2013-01-29 18:59:00,44.7,30.0,30.09,WSW,241,2.3,2.3,56,0.00,CLR,,0.00,WeatherDisplay:10.37,2013-01-30 02:59:00,
2013-01-29 19:04:00,44.3,30.0,30.09,WSW,241,3.5,3.5,57,0.00,CLR,,0.00,WeatherDisplay:10.37,2013-01-30 03:04:00,
2013-01-29 19:09:00,43.9,30.1,30.10,WSW,241,9.2,9.2,58,0.00,CLR,,0.00,WeatherDisplay:10.37,2013-01-30 03:09:00,
2013-01-29 19:14:00,43.3,29.9,30.10,WSW,241,6.9,6.9,59,0.00,CLR,,0.00,WeatherDisplay:10.37,2013-01-30 03:14:00,
2013-01-29 19:19:00,43.1,30.6,30.10,WSW,239,5.8,5.8,61,0.00,CLR,,0.00,WeatherDisplay:10.37,2013-01-30 03:19:00,
2013-01-29 19:24:00,43.0,30.9,30.10,WSW,238,9.2,9.2,62,0.00,CLR,,0.00,WeatherDisplay:10.37,2013-01-30 03:24:00,
2013-01-29 19:29:00,43.5,31.3,30.10,WSW,257,6.9,6.9,62,0.00,CLR,,0.00,WeatherDisplay:10.37,2013-01-30 03:29:00,
2013-01-29 19:34:00,44.0,31.4,30.10,WSW,256,5.8,5.8,61,0.00,CLR,,0.00,WeatherDisplay:10.37,2013-01-30 03:34:00,
2013-01-29 19:39:00,44.2,31.6,30.10,West,261,7.0,7.0,61,0.00,CLR,,0.00,WeatherDisplay:10.37,2013-01-30 03:39:00,
2013-01-29 19:44:00,44.3,31.7,30.10,West,261,9.2,9.2,61,0.00,CLR,,0.00,WeatherDisplay:10.37,2013-01-30 03:44:00,
2013-01-29 19:49:00,45.0,31.5,30.10,West,260,8.1,8.1,59,0.00,CLR,,0.00,WeatherDisplay:10.37,2013-01-30 03:49:00,
2013-01-29 19:54:00,46.5,31.6,30.10,NW,305,11.5,11.5,56,0.00,CLR,,0.00,WeatherDisplay:10.37,2013-01-30 03:54:00,
2013-01-29 19:59:00,47.3,31.5,30.10,NW,306,13.8,13.8,54,0.00,CLR,,0.00,WeatherDisplay:10.37,2013-01-30 03:59:00,
2013-01-29 20:04:00,47.3,31.0,30.09,NW,322,10.4,10.4,53,0.00,CLR,,0.00,WeatherDisplay:10.37,2013-01-30 04:04:00,
2013-01-29 20:09:00,47.0,30.7,30.09,NW,304,15.0,15.0,53,0.00,CLR,,0.00,WeatherDisplay:10.37,2013-01-30 04:09:00,
2013-01-29 20:14:00,46.9,30.6,30.09,NW,321,5.8,5.8,53,0.00,CLR,,0.00,WeatherDisplay:10.37,2013-01-30 04:14:00,
2013-01-29 20:19:00,46.9,30.6,30.10,NNW,337,3.5,3.5,53,0.00,CLR,,0.00,WeatherDisplay:10.37,2013-01-30 04:19:00,
2013-01-29 20:24:00,47.1,30.4,30.10,North,349,6.9,6.9,52,0.00,CLR,,0.00,WeatherDisplay:10.37,2013-01-30 04:24:00,
2013-01-29 20:29:00,47.3,30.5,30.10,North,349,1.1,1.1,52,0.00,CLR,,0.00,WeatherDisplay:10.37,2013-01-30 04:29:00,
2013-01-29 20:34:00,47.2,30.5,30.10,WSW,257,3.5,3.5,52,0.00,CLR,,0.00,WeatherDisplay:10.37,2013-01-30 04:34:00,
2013-01-29 20:39:00,46.8,30.1,30.11,WSW,252,3.5,3.5,52,0.00,CLR,,0.00,WeatherDisplay:10.37,2013-01-30 04:39:00,
2013-01-29 20:44:00,46.5,30.3,30.11,NNW,334,6.9,6.9,53,0.00,CLR,,0.00,WeatherDisplay:10.37,2013-01-30 04:44:00,
2013-01-29 20:49:00,46.9,30.2,30.11,NW,322,3.5,3.5,52,0.00,CLR,,0.00,WeatherDisplay:10.37,2013-01-30 04:49:00,
2013-01-29 21:08:00,45.0,29.8,30.12,WSW,244,0.0,0.0,55,0.00,CLR,,0.00,WeatherDisplay:10.37,2013-01-30 05:08:00,
2013-01-29 21:09:00,45.0,29.8,30.12,WSW,244,0.0,0.0,55,0.00,CLR,,0.00,WeatherDisplay:10.37,2013-01-30 05:09:00,
2013-01-29 21:14:00,45.0,30.2,30.12,WSW,244,0.0,0.0,56,0.00,CLR,,0.00,WeatherDisplay:10.37,2013-01-30 05:14:00,
2013-01-29 21:16:00,45.0,30.2,30.12,WSW,244,0.0,0.0,56,0.00,CLR,,0.00,WeatherDisplay:10.37,2013-01-30 05:16:00,
2013-01-29 21:21:00,45.0,30.2,30.12,NE,37,4.6,4.6,56,0.00,CLR,,0.00,WeatherDisplay:10.37,2013-01-30 05:21:00,
2013-01-29 21:26:00,44.7,30.0,30.12,NNE,28,4.6,4.6,56,0.00,CLR,,0.00,WeatherDisplay:10.37,2013-01-30 05:26:00,
2013-01-29 21:31:00,44.1,29.8,30.12,NNE,14,5.8,5.8,57,0.00,CLR,,0.00,WeatherDisplay:10.37,2013-01-30 05:31:00,
2013-01-29 21:36:00,43.5,29.7,30.12,NNE,15,3.5,3.5,58,0.00,CLR,,0.00,WeatherDisplay:10.37,2013-01-30 05:36:00,
2013-01-29 21:43:00,42.9,29.5,30.13,NNE,15,0.0,0.6,59,0.00,CLR,,0.00,WeatherDisplay:10.37,2013-01-30 05:43:00,
2013-01-29 21:48:00,42.7,29.8,30.13,NNE,15,3.5,3.5,60,0.00,CLR,,0.00,WeatherDisplay:10.37,2013-01-30 05:48:00,
2013-01-29 21:54:00,42.5,29.6,30.13,NNE,15,0.0,0.0,60,0.00,CLR,,0.00,WeatherDisplay:10.37,2013-01-30 05:54:00,
2013-01-29 21:59:00,42.6,29.7,30.13,NNE,15,0.0,0.0,60,0.00,CLR,,0.00,WeatherDisplay:10.37,2013-01-30 05:59:00,
2013-01-29 22:04:00,42.7,29.8,30.13,NNE,15,2.3,2.3,60,0.00,CLR,,0.00,WeatherDisplay:10.37,2013-01-30 06:04:00,
2013-01-29 22:09:00,42.5,29.6,30.13,NNE,15,4.6,4.6,60,0.00,CLR,,0.00,WeatherDisplay:10.37,2013-01-30 06:09:00,
2013-01-29 22:14:00,42.6,29.7,30.13,NE,36,5.8,5.8,60,0.00,CLR,,0.00,WeatherDisplay:10.37,2013-01-30 06:14:00,
2013-01-29 22:19:00,42.7,29.8,30.13,North,11,5.8,5.8,60,0.00,CLR,,0.00,WeatherDisplay:10.37,2013-01-30 06:19:00,
2013-01-29 22:24:00,42.4,29.5,30.14,North,11,4.6,4.6,60,0.00,CLR,,0.00,WeatherDisplay:10.37,2013-01-30 06:24:00,
2013-01-29 22:29:00,42.2,29.7,30.14,North,11,3.5,3.5,61,0.00,CLR,,0.00,WeatherDisplay:10.37,2013-01-30 06:29:00,
2013-01-29 22:34:00,41.9,29.4,30.15,North,10,2.3,2.3,61,0.00,CLR,,0.00,WeatherDisplay:10.37,2013-01-30 06:34:00,
2013-01-29 22:39:00,41.8,29.7,30.15,North,11,2.3,2.3,62,0.00,CLR,,0.00,WeatherDisplay:10.37,2013-01-30 06:39:00,
2013-01-29 22:44:00,41.5,29.4,30.15,North,10,0.0,0.0,62,0.00,CLR,,0.00,WeatherDisplay:10.37,2013-01-30 06:44:00,
2013-01-29 22:49:00,41.0,29.4,30.16,North,10,3.5,3.5,63,0.00,CLR,,0.00,WeatherDisplay:10.37,2013-01-30 06:49:00,
2013-01-29 22:54:00,40.6,29.4,30.16,North,10,3.5,3.5,64,0.00,CLR,,0.00,WeatherDisplay:10.37,2013-01-30 06:54:00,
2013-01-29 22:59:00,40.4,29.6,30.17,North,10,0.0,0.0,65,0.00,CLR,,0.00,WeatherDisplay:10.37,2013-01-30 06:59:00,
2013-01-29 23:04:00,40.1,29.3,30.17,North,11,0.0,0.0,65,0.00,CLR,,0.00,WeatherDisplay:10.37,2013-01-30 07:04:00,
2013-01-29 23:09:00,39.3,28.5,30.17,WSW,242,3.5,3.5,65,0.00,CLR,,0.00,WeatherDisplay:10.37,2013-01-30 07:09:00,
2013-01-29 23:14:00,38.4,28.0,30.17,SW,227,0.0,0.0,66,0.00,CLR,,0.00,WeatherDisplay:10.37,2013-01-30 07:14:00,
2013-01-29 23:19:00,37.7,28.1,30.17,SW,227,3.5,3.5,68,0.00,CLR,,0.00,WeatherDisplay:10.37,2013-01-30 07:19:00,
2013-01-29 23:24:00,37.7,28.4,30.17,SW,227,3.5,3.5,69,0.00,CLR,,0.00,WeatherDisplay:10.37,2013-01-30 07:24:00,
2013-01-29 23:29:00,38.0,29.1,30.17,NW,311,3.5,3.5,70,0.00,CLR,,0.00,WeatherDisplay:10.37,2013-01-30 07:29:00,
2013-01-29 23:34:00,38.7,29.8,30.17,NW,311,3.5,3.5,70,0.00,CLR,,0.00,WeatherDisplay:10.37,2013-01-30 07:34:00,
2013-01-29 23:39:00,39.2,29.9,30.17,NW,312,0.0,0.0,69,0.00,CLR,,0.00,WeatherDisplay:10.37,2013-01-30 07:39:00,
2013-01-29 23:44:00,39.6,31.3,30.17,NNW,346,5.0,5.0,72,0.00,CLR,,0.00,WeatherDisplay:10.37,2013-01-30 07:44:00,
2013-01-29 23:49:00,39.9,29.8,30.17,North,360,3.5,3.5,67,0.00,CLR,,0.00,WeatherDisplay:10.37,2013-01-30 07:49:00,
2013-01-29 23:54:00,40.0,29.9,30.17,North,5,4.6,4.6,67,0.00,CLR,,0.00,WeatherDisplay:10.37,2013-01-30 07:54:00,
2013-01-29 23:59:00,40.1,29.6,30.18,North,5,3.5,3.5,66,0.00,CLR,,0.00,WeatherDisplay:10.37,2013-01-30 07:59:00,